| time (UTC) | temp F | wind direction | speed knots | gust knots | rain 1hr in | rain 24hr in | rain mn in | humidity % | barometer mb |
| 20260507033605 | 43 | 113 | 0.0 | 0.0 | 0.00 | 0.00 | 0.00 | 50 | 1014.2 |
| 20260507033102 | 44 | 135 | 0.0 | 0.9 | 0.00 | 0.00 | 0.00 | 47 | 1013.9 |
| 20260507032559 | 44 | 29 | 0.0 | 0.0 | 0.00 | 0.00 | 0.00 | 47 | 1014.1 |
| 20260507032055 | 45 | 29 | 0.0 | 0.0 | 0.00 | 0.00 | 0.00 | 46 | 1014.0 |
| 20260507031552 | 45 | 23 | 0.9 | 1.7 | 0.00 | 0.00 | 0.00 | 46 | 1014.2 |
| 20260507031049 | 45 | 21 | 0.9 | 1.7 | 0.00 | 0.00 | 0.00 | 49 | 1014.1 |
| 20260507030545 | 45 | 35 | 0.9 | 0.9 | 0.00 | 0.00 | 0.00 | 49 | 1014.0 |
| 20260507030043 | 46 | 7 | 1.7 | 2.6 | 0.00 | 0.00 | 0.00 | 48 | 1014.1 |
| 20260507025540 | 45 | 237 | 0.0 | 0.0 | 0.00 | 0.00 | 0.00 | 47 | 1014.1 |
| 20260507025038 | 46 | 237 | 0.0 | 0.0 | 0.00 | 0.00 | 0.00 | 46 | 1014.0 |
| 20260507024536 | 47 | 237 | 0.0 | 0.9 | 0.00 | 0.00 | 0.00 | 48 | 1014.1 |
| 20260507024032 | 47 | 202 | 0.0 | 0.9 | 0.00 | 0.00 | 0.00 | 46 | 1014.0 |
| 20260507023527 | 48 | 132 | 0.9 | 1.7 | 0.00 | 0.00 | 0.00 | 45 | 1013.9 |
| 20260507023026 | 48 | 113 | 0.9 | 1.7 | 0.00 | 0.00 | 0.00 | 43 | 1014.0 |
| 20260507022522 | 49 | 143 | 1.7 | 1.7 | 0.00 | 0.00 | 0.00 | 42 | 1014.0 |
| 20260507022017 | 50 | 157 | 0.9 | 0.9 | 0.00 | 0.00 | 0.00 | 40 | 1014.0 |
| 20260507021514 | 51 | 160 | 1.7 | 1.7 | 0.00 | 0.00 | 0.00 | 39 | 1014.0 |
| 20260507021010 | 51 | 207 | 0.0 | 1.7 | 0.00 | 0.00 | 0.00 | 38 | 1014.2 |
| 20260507020508 | 52 | 203 | 0.0 | 1.7 | 0.00 | 0.00 | 0.00 | 36 | 1014.1 |
| 20260507020004 | 52 | 233 | 1.7 | 2.6 | 0.00 | 0.00 | 0.00 | 36 | 1014.0 |
| 20260507015503 | 52 | 257 | 0.9 | 2.6 | 0.00 | 0.00 | 0.00 | 36 | 1014.1 |
| 20260507015000 | 52 | 258 | 0.9 | 2.6 | 0.00 | 0.00 | 0.00 | 37 | 1014.1 |
| 20260507014456 | 53 | 285 | 1.7 | 2.6 | 0.00 | 0.00 | 0.00 | 37 | 1014.2 |
| 20260507013952 | 53 | 263 | 2.6 | 3.5 | 0.00 | 0.00 | 0.00 | 35 | 1014.2 |
| 20260507013449 | 53 | 266 | 3.5 | 4.3 | 0.00 | 0.00 | 0.00 | 34 | 1014.3 |
| 20260507012946 | 54 | 265 | 1.7 | 4.3 | 0.00 | 0.00 | 0.00 | 35 | 1014.0 |
| 20260507012443 | 54 | 274 | 1.7 | 1.7 | 0.00 | 0.00 | 0.00 | 35 | 1014.1 |
| 20260507011940 | 54 | 269 | 1.7 | 2.6 | 0.00 | 0.00 | 0.00 | 35 | 1014.2 |
| 20260507011437 | 54 | 276 | 2.6 | 2.6 | 0.00 | 0.00 | 0.00 | 34 | 1014.3 |
| 20260507010937 | 54 | 277 | 2.6 | 3.5 | 0.00 | 0.00 | 0.00 | 34 | 1014.2 |
| 20260507010432 | 55 | 288 | 2.6 | 5.2 | 0.00 | 0.00 | 0.00 | 33 | 1014.1 |
| 20260507005929 | 55 | 280 | 3.5 | 4.3 | 0.00 | 0.00 | 0.00 | 33 | 1014.5 |
| 20260507005426 | 55 | 287 | 3.5 | 3.5 | 0.00 | 0.00 | 0.00 | 33 | 1014.5 |
| 20260507004923 | 55 | 266 | 2.6 | 4.3 | 0.00 | 0.00 | 0.00 | 33 | 1014.6 |
| 20260507004420 | 55 | 287 | 4.3 | 5.2 | 0.00 | 0.00 | 0.00 | 33 | 1014.6 |
| 20260507003918 | 55 | 282 | 3.5 | 4.3 | 0.00 | 0.00 | 0.00 | 33 | 1014.7 |
| 20260507003412 | 55 | 291 | 4.3 | 7.8 | 0.00 | 0.00 | 0.00 | 31 | 1014.6 |
| 20260507002908 | 55 | 287 | 5.2 | 7.0 | 0.00 | 0.00 | 0.00 | 31 | 1014.6 |
| 20260507002404 | 55 | 290 | 6.1 | 9.6 | 0.00 | 0.00 | 0.00 | 31 | 1014.6 |
| 20260507001902 | 56 | 290 | 4.3 | 8.7 | 0.00 | 0.00 | 0.00 | 31 | 1014.5 |
| 20260507001358 | 56 | 290 | 6.1 | 8.7 | 0.00 | 0.00 | 0.00 | 30 | 1014.6 |
| 20260507000855 | 57 | 292 | 7.8 | 8.7 | 0.00 | 0.00 | 0.00 | 30 | 1014.8 |
| 20260507000350 | 56 | 316 | 5.2 | 7.8 | 0.00 | 0.00 | 0.00 | 31 | 1015.0 |
| 20260506235847 | 56 | 315 | 7.0 | 9.6 | 0.00 | 0.00 | 0.00 | 31 | 1015.0 |
| 20260506235344 | 55 | 285 | 5.2 | 7.0 | 0.00 | 0.00 | 0.00 | 32 | 1015.0 |
| 20260506234840 | 55 | 294 | 6.1 | 7.8 | 0.00 | 0.00 | 0.00 | 32 | 1015.0 |
| 20260506234338 | 55 | 262 | 3.5 | 6.1 | 0.00 | 0.00 | 0.00 | 33 | 1014.8 |
| 20260506233835 | 56 | 275 | 4.3 | 6.1 | 0.00 | 0.00 | 0.00 | 33 | 1014.9 |
| 20260506233331 | 56 | 261 | 3.5 | 7.0 | 0.00 | 0.00 | 0.00 | 31 | 1015.1 |
| 20260506232828 | 58 | 274 | 6.1 | 7.8 | 0.00 | 0.00 | 0.00 | 30 | 1015.1 |
| 20260506232324 | 57 | 247 | 4.3 | 8.7 | 0.00 | 0.00 | 0.00 | 30 | 1015.2 |
| 20260506231820 | 57 | 254 | 6.1 | 9.6 | 0.00 | 0.00 | 0.00 | 30 | 1015.1 |
| 20260506231318 | 58 | 266 | 9.6 | 12.2 | 0.00 | 0.00 | 0.00 | 29 | 1015.1 |
| 20260506230816 | 58 | 296 | 5.2 | 9.6 | 0.00 | 0.00 | 0.00 | 30 | 1015.1 |
| 20260506230312 | 57 | 303 | 7.0 | 9.6 | 0.00 | 0.00 | 0.00 | 31 | 1015.1 |
| 20260506225808 | 58 | 275 | 4.3 | 7.0 | 0.00 | 0.00 | 0.00 | 31 | 1015.3 |
| 20260506225306 | 58 | 263 | 4.3 | 7.8 | 0.00 | 0.00 | 0.00 | 29 | 1015.2 |
| 20260506224802 | 59 | 259 | 6.1 | 9.6 | 0.00 | 0.00 | 0.00 | 29 | 1015.3 |
| 20260506224300 | 58 | 266 | 7.8 | 12.2 | 0.00 | 0.00 | 0.00 | 29 | 1015.2 |
| 20260506223756 | 58 | 271 | 7.0 | 14.8 | 0.00 | 0.00 | 0.00 | 29 | 1015.2 |
| 20260506223251 | 59 | 261 | 6.1 | 9.6 | 0.00 | 0.00 | 0.00 | 28 | 1015.3 |
| 20260506222748 | 58 | 320 | 5.2 | 8.7 | 0.00 | 0.00 | 0.00 | 32 | 1015.4 |
| 20260506222244 | 55 | 280 | 5.2 | 8.7 | 0.00 | 0.00 | 0.00 | 30 | 1015.5 |
| 20260506221737 | 55 | 282 | 6.1 | 8.7 | 0.00 | 0.00 | 0.00 | 30 | 1015.6 |
| 20260506221234 | 58 | 280 | 7.0 | 10.4 | 0.00 | 0.00 | 0.00 | 29 | 1015.6 |
| 20260506220726 | 55 | 290 | 7.0 | 8.7 | 0.00 | 0.00 | 0.00 | 31 | 1015.8 |
| 20260506220226 | 56 | 277 | 7.0 | 8.7 | 0.00 | 0.00 | 0.00 | 30 | 1015.6 |
| 20260506215722 | 57 | 266 | 7.8 | 10.4 | 0.00 | 0.00 | 0.00 | 31 | 1015.8 |
| 20260506215218 | 58 | 264 | 6.1 | 9.6 | 0.00 | 0.00 | 0.00 | 30 | 1016.0 |
| 20260506214715 | 57 | 323 | 6.1 | 11.3 | 0.00 | 0.00 | 0.00 | 30 | 1015.9 |
| 20260506214212 | 57 | 306 | 7.8 | 9.6 | 0.00 | 0.00 | 0.00 | 30 | 1015.8 |
| 20260506213710 | 55 | 310 | 7.0 | 9.6 | 0.00 | 0.00 | 0.00 | 32 | 1016.2 |
| 20260506213208 | 57 | 268 | 5.2 | 9.6 | 0.00 | 0.00 | 0.00 | 31 | 1016.0 |
| 20260506212704 | 56 | 0 | 7.0 | 9.6 | 0.00 | 0.00 | 0.00 | 33 | 1016.2 |
| 20260506212200 | 56 | 298 | 7.0 | 10.4 | 0.00 | 0.00 | 0.00 | 31 | 1016.2 |
| 20260506211655 | 56 | 274 | 7.0 | 10.4 | 0.00 | 0.00 | 0.00 | 31 | 1016.4 |
| 20260506211152 | 55 | 311 | 5.2 | 7.8 | 0.00 | 0.00 | 0.00 | 32 | 1016.2 |
| 20260506210649 | 57 | 287 | 8.7 | 13.9 | 0.00 | 0.00 | 0.00 | 31 | 1016.5 |
| 20260506210146 | 57 | 284 | 5.2 | 11.3 | 0.00 | 0.00 | 0.00 | 32 | 1016.4 |
| 20260506205644 | 57 | 289 | 9.6 | 12.2 | 0.00 | 0.00 | 0.00 | 31 | 1016.6 |
| 20260506205143 | 57 | 300 | 6.1 | 12.2 | 0.00 | 0.00 | 0.00 | 30 | 1016.4 |
| 20260506204642 | 56 | 286 | 6.1 | 11.3 | 0.00 | 0.00 | 0.00 | 31 | 1016.3 |
| 20260506204138 | 57 | 281 | 9.6 | 13.0 | 0.00 | 0.00 | 0.00 | 32 | 1016.6 |
| 20260506203637 | 58 | 289 | 8.7 | 15.6 | 0.00 | 0.00 | 0.00 | 32 | 1016.8 |
| 20260506203133 | 58 | 269 | 6.1 | 10.4 | 0.00 | 0.00 | 0.00 | 30 | 1016.8 |
| 20260506202631 | 57 | 263 | 6.1 | 13.0 | 0.00 | 0.00 | 0.00 | 32 | 1016.9 |
| 20260506202127 | 56 | 300 | 8.7 | 13.0 | 0.00 | 0.00 | 0.00 | 32 | 1016.9 |
| 20260506201624 | 54 | 297 | 7.0 | 10.4 | 0.00 | 0.00 | 0.00 | 33 | 1016.9 |
| 20260506201121 | 55 | 309 | 9.6 | 13.0 | 0.00 | 0.00 | 0.00 | 32 | 1017.1 |
| 20260506200617 | 55 | 309 | 5.2 | 5.2 | 0.00 | 0.00 | 0.00 | 36 | 1017.3 |
| 20260506200114 | 55 | 280 | 5.2 | 10.4 | 0.00 | 0.00 | 0.00 | 33 | 1017.1 |
| 20260506195611 | 55 | 297 | 6.1 | 11.3 | 0.00 | 0.00 | 0.00 | 34 | 1016.9 |
| 20260506195107 | 56 | 285 | 7.8 | 12.2 | 0.00 | 0.00 | 0.00 | 31 | 1017.1 |
| 20260506194605 | 56 | 293 | 12.2 | 14.8 | 0.00 | 0.00 | 0.00 | 32 | 1017.3 |
| 20260506194101 | 54 | 298 | 11.3 | 12.2 | 0.00 | 0.00 | 0.00 | 32 | 1017.1 |
| 20260506193559 | 54 | 291 | 6.1 | 10.4 | 0.00 | 0.00 | 0.00 | 34 | 1017.2 |
| 20260506193056 | 54 | 297 | 7.8 | 9.6 | 0.00 | 0.00 | 0.00 | 33 | 1017.3 |
| 20260506192552 | 54 | 299 | 5.2 | 10.4 | 0.00 | 0.00 | 0.00 | 32 | 1017.5 |
| 20260506192048 | 54 | 289 | 9.6 | 14.8 | 0.00 | 0.00 | 0.00 | 32 | 1017.4 |
| 20260506191545 | 53 | 338 | 4.3 | 11.3 | 0.00 | 0.00 | 0.00 | 32 | 1017.5 |
| 20260506191041 | 55 | 279 | 13.0 | 15.6 | 0.00 | 0.00 | 0.00 | 32 | 1017.3 |
| 20260506190538 | 54 | 306 | 11.3 | 13.0 | 0.00 | 0.00 | 0.00 | 33 | 1017.3 |
| 20260506190035 | 54 | 272 | 7.8 | 10.4 | 0.00 | 0.00 | 0.00 | 33 | 1017.5 |
| 20260506185533 | 54 | 273 | 7.8 | 11.3 | 0.00 | 0.00 | 0.00 | 34 | 1017.4 |
| 20260506185029 | 54 | 255 | 7.8 | 14.8 | 0.00 | 0.00 | 0.00 | 33 | 1017.5 |
| 20260506184527 | 54 | 286 | 9.6 | 12.2 | 0.00 | 0.00 | 0.00 | 32 | 1017.4 |
| 20260506184024 | 56 | 275 | 7.0 | 9.6 | 0.00 | 0.00 | 0.00 | 35 | 1017.6 |
| 20260506183519 | 56 | 273 | 4.3 | 11.3 | 0.00 | 0.00 | 0.00 | 33 | 1017.8 |
| 20260506183016 | 53 | 293 | 7.8 | 14.8 | 0.00 | 0.00 | 0.00 | 34 | 1017.9 |
| 20260506182514 | 55 | 298 | 7.0 | 12.2 | 0.00 | 0.00 | 0.00 | 34 | 1017.9 |
| 20260506182010 | 53 | 299 | 7.8 | 15.6 | 0.00 | 0.00 | 0.00 | 33 | 1018.1 |
| 20260506181508 | 55 | 292 | 6.1 | 9.6 | 0.00 | 0.00 | 0.00 | 32 | 1018.1 |
| 20260506181005 | 55 | 294 | 10.4 | 14.8 | 0.00 | 0.00 | 0.00 | 33 | 1018.1 |
| 20260506180502 | 52 | 310 | 11.3 | 14.8 | 0.00 | 0.00 | 0.00 | 33 | 1018.0 |
| 20260506175958 | 55 | 267 | 6.1 | 7.8 | 0.00 | 0.00 | 0.00 | 33 | 1018.1 |
| 20260506175455 | 54 | 307 | 7.8 | 11.3 | 0.00 | 0.00 | 0.00 | 34 | 1018.2 |
| 20260506174951 | 54 | 292 | 9.6 | 10.4 | 0.00 | 0.00 | 0.00 | 36 | 1018.1 |
| 20260506174450 | 55 | 302 | 10.4 | 13.9 | 0.00 | 0.00 | 0.00 | 33 | 1018.1 |
| 20260506173946 | 54 | 307 | 9.6 | 13.0 | 0.00 | 0.00 | 0.00 | 34 | 1018.1 |
| 20260506173443 | 53 | 272 | 8.7 | 12.2 | 0.00 | 0.00 | 0.00 | 35 | 1018.3 |
| 20260506172940 | 51 | 300 | 7.0 | 14.8 | 0.00 | 0.00 | 0.00 | 36 | 1018.5 |
| 20260506172437 | 53 | 302 | 7.8 | 12.2 | 0.00 | 0.00 | 0.00 | 33 | 1018.3 |
| 20260506171934 | 52 | 304 | 8.7 | 13.9 | 0.00 | 0.00 | 0.00 | 34 | 1018.3 |
| 20260506171431 | 52 | 312 | 7.8 | 10.4 | 0.00 | 0.00 | 0.00 | 34 | 1018.4 |
| 20260506170929 | 54 | 276 | 13.9 | 15.6 | 0.00 | 0.00 | 0.00 | 33 | 1018.7 |
| 20260506170425 | 53 | 322 | 4.3 | 12.2 | 0.00 | 0.00 | 0.00 | 35 | 1018.5 |
| 20260506165924 | 53 | 291 | 11.3 | 16.5 | 0.00 | 0.00 | 0.00 | 34 | 1018.7 |
| 20260506165422 | 52 | 267 | 4.3 | 14.8 | 0.00 | 0.00 | 0.00 | 35 | 1018.6 |
| 20260506164918 | 51 | 283 | 7.0 | 10.4 | 0.00 | 0.00 | 0.00 | 38 | 1018.7 |
| 20260506164415 | 51 | 308 | 9.6 | 16.5 | 0.00 | 0.00 | 0.00 | 35 | 1018.8 |
| 20260506163913 | 52 | 290 | 7.8 | 13.0 | 0.00 | 0.00 | 0.00 | 35 | 1018.9 |
| 20260506163407 | 52 | 322 | 5.2 | 8.7 | 0.00 | 0.00 | 0.00 | 36 | 1018.8 |
| 20260506162902 | 50 | 297 | 8.7 | 12.2 | 0.00 | 0.00 | 0.00 | 36 | 1018.9 |
| 20260506162400 | 51 | 285 | 8.7 | 13.0 | 0.00 | 0.00 | 0.00 | 36 | 1018.8 |
| 20260506161857 | 52 | 287 | 11.3 | 14.8 | 0.00 | 0.00 | 0.00 | 35 | 1018.8 |
| 20260506161355 | 50 | 295 | 7.0 | 9.6 | 0.00 | 0.00 | 0.00 | 39 | 1018.8 |
| 20260506160852 | 50 | 306 | 4.3 | 9.6 | 0.00 | 0.00 | 0.00 | 39 | 1018.9 |
| 20260506160349 | 50 | 299 | 7.8 | 9.6 | 0.00 | 0.00 | 0.00 | 38 | 1018.8 |
| 20260506155848 | 50 | 313 | 6.1 | 10.4 | 0.00 | 0.00 | 0.00 | 37 | 1018.9 |
| 20260506155344 | 50 | 278 | 7.0 | 13.0 | 0.00 | 0.00 | 0.00 | 39 | 1019.1 |
| 20260506153502 | 48 | 285 | 5.2 | 7.0 | 0.00 | 0.00 | 0.00 | 45 | 1019.1 |
| 20260506152959 | 49 | 348 | 7.0 | 8.7 | 0.00 | 0.00 | 0.00 | 47 | 1019.0 |
| 20260506152456 | 50 | 325 | 2.6 | 7.8 | 0.00 | 0.00 | 0.00 | 45 | 1019.2 |
| 20260506151954 | 48 | 284 | 3.5 | 4.3 | 0.00 | 0.00 | 0.00 | 47 | 1019.3 |
| 20260506151451 | 50 | 278 | 4.3 | 5.2 | 0.00 | 0.00 | 0.00 | 45 | 1019.3 |
| 20260506150949 | 48 | 273 | 1.7 | 3.5 | 0.00 | 0.00 | 0.00 | 46 | 1019.4 |
| 20260506150444 | 48 | 311 | 5.2 | 6.1 | 0.00 | 0.00 | 0.00 | 48 | 1019.4 |
| 20260506145942 | 49 | 286 | 3.5 | 5.2 | 0.00 | 0.00 | 0.00 | 47 | 1019.4 |
| 20260506145438 | 47 | 292 | 4.3 | 6.1 | 0.00 | 0.00 | 0.00 | 46 | 1019.7 |
| 20260506144936 | 47 | 326 | 2.6 | 7.0 | 0.00 | 0.00 | 0.00 | 46 | 1019.8 |
| 20260506144432 | 47 | 287 | 1.7 | 4.3 | 0.00 | 0.00 | 0.00 | 48 | 1019.7 |
| 20260506143930 | 47 | 297 | 2.6 | 5.2 | 0.00 | 0.00 | 0.00 | 46 | 1019.8 |
| 20260506143427 | 46 | 261 | 1.7 | 4.3 | 0.00 | 0.00 | 0.00 | 49 | 1019.8 |
| 20260506142925 | 46 | 352 | 1.7 | 5.2 | 0.00 | 0.00 | 0.00 | 49 | 1019.7 |
| 20260506142423 | 46 | 255 | 2.6 | 4.3 | 0.00 | 0.00 | 0.00 | 51 | 1019.8 |
| 20260506141921 | 46 | 326 | 3.5 | 3.5 | 0.00 | 0.00 | 0.00 | 50 | 1019.9 |
| 20260506141419 | 45 | 276 | 3.5 | 3.5 | 0.00 | 0.00 | 0.00 | 51 | 1019.8 |
| 20260506140917 | 45 | 226 | 2.6 | 4.3 | 0.00 | 0.00 | 0.00 | 51 | 1019.8 |
| 20260506140413 | 45 | 277 | 3.5 | 3.5 | 0.00 | 0.00 | 0.00 | 52 | 1019.9 |
| 20260506135911 | 45 | 244 | 3.5 | 3.5 | 0.00 | 0.00 | 0.00 | 52 | 1019.9 |
| 20260506135408 | 44 | 268 | 1.7 | 3.5 | 0.00 | 0.00 | 0.00 | 52 | 1019.9 |
| 20260506134904 | 44 | 234 | 1.7 | 3.5 | 0.00 | 0.00 | 0.00 | 54 | 1019.8 |
| 20260506134400 | 44 | 272 | 2.6 | 2.6 | 0.00 | 0.00 | 0.00 | 58 | 1019.7 |
| 20260506133857 | 43 | 280 | 1.7 | 1.7 | 0.00 | 0.00 | 0.00 | 59 | 1019.7 |
| 20260506133353 | 42 | 259 | 1.7 | 4.3 | 0.00 | 0.00 | 0.00 | 57 | 1019.5 |
| 20260506132850 | 42 | 239 | 0.9 | 2.6 | 0.00 | 0.00 | 0.00 | 60 | 1019.7 |
| 20260506132347 | 42 | 251 | 1.7 | 1.7 | 0.00 | 0.00 | 0.00 | 64 | 1019.3 |
| 20260506131846 | 41 | 195 | 0.0 | 1.7 | 0.00 | 0.00 | 0.00 | 65 | 1019.4 |
| 20260506131341 | 40 | 199 | 0.0 | 1.7 | 0.00 | 0.00 | 0.00 | 68 | 1019.5 |
| 20260506130839 | 39 | 304 | 0.0 | 1.7 | 0.00 | 0.00 | 0.00 | 68 | 1019.4 |
| 20260506130335 | 39 | 188 | 0.0 | 2.6 | 0.00 | 0.00 | 0.00 | 71 | 1019.2 |
| 20260506125833 | 38 | 181 | 2.6 | 3.5 | 0.00 | 0.00 | 0.00 | 71 | 1019.3 |
| 20260506125331 | 37 | 223 | 0.0 | 1.7 | 0.00 | 0.00 | 0.00 | 75 | 1019.1 |
| 20260506124829 | 35 | 239 | 1.7 | 2.6 | 0.00 | 0.00 | 0.00 | 77 | 1019.3 |
| 20260506124326 | 33 | 229 | 0.9 | 1.7 | 0.00 | 0.00 | 0.00 | 79 | 1019.2 |
| 20260506123823 | 33 | 102 | 0.0 | 1.7 | 0.00 | 0.00 | 0.00 | 81 | 1019.0 |
| 20260506123322 | 32 | 189 | 0.0 | 2.6 | 0.00 | 0.00 | 0.00 | 81 | 1019.0 |
| 20260506122819 | 32 | 169 | 1.7 | 2.6 | 0.00 | 0.00 | 0.00 | 81 | 1019.0 |
| 20260506122316 | 32 | 149 | 3.5 | 3.5 | 0.00 | 0.00 | 0.00 | 81 | 1018.9 |
| 20260506121814 | 31 | 145 | 1.7 | 1.7 | 0.00 | 0.00 | 0.00 | 81 | 1018.8 |
| 20260506121310 | 31 | 179 | 1.7 | 2.6 | 0.00 | 0.00 | 0.00 | 81 | 1018.7 |
| 20260506120808 | 31 | 159 | 0.9 | 1.7 | 0.00 | 0.00 | 0.00 | 81 | 1018.7 |
| 20260506120305 | 31 | 205 | 1.7 | 1.7 | 0.00 | 0.00 | 0.00 | 81 | 1018.8 |
| 20260506115803 | 31 | 124 | 1.7 | 1.7 | 0.00 | 0.00 | 0.00 | 81 | 1018.6 |
| 20260506115301 | 31 | 138 | 1.7 | 1.7 | 0.00 | 0.00 | 0.00 | 80 | 1018.6 |
| 20260506114758 | 32 | 69 | 0.0 | 3.5 | 0.00 | 0.00 | 0.00 | 79 | 1018.6 |
| 20260506114256 | 33 | 109 | 0.0 | 0.9 | 0.00 | 0.00 | 0.00 | 78 | 1018.4 |
| 20260506113754 | 33 | 269 | 0.0 | 2.6 | 0.00 | 0.00 | 0.00 | 78 | 1018.4 |
| 20260506113251 | 33 | 286 | 0.0 | 1.7 | 0.00 | 0.00 | 0.00 | 79 | 1018.3 |
| 20260506112748 | 33 | 267 | 0.9 | 2.6 | 0.00 | 0.00 | 0.00 | 79 | 1018.3 |
| 20260506112245 | 33 | 303 | 2.6 | 2.6 | 0.00 | 0.00 | 0.00 | 78 | 1018.0 |
| 20260506111742 | 33 | 311 | 1.7 | 1.7 | 0.00 | 0.00 | 0.00 | 79 | 1018.1 |
| 20260506111241 | 33 | 317 | 0.0 | 1.7 | 0.00 | 0.00 | 0.00 | 79 | 1018.1 |
| 20260506110737 | 33 | 299 | 0.9 | 1.7 | 0.00 | 0.00 | 0.00 | 81 | 1018.1 |
| 20260506110235 | 33 | 255 | 0.9 | 1.7 | 0.00 | 0.00 | 0.00 | 80 | 1018.1 |
| 20260506105731 | 33 | 267 | 0.9 | 0.9 | 0.00 | 0.00 | 0.00 | 81 | 1018.2 |
| 20260506105228 | 32 | 272 | 0.9 | 0.9 | 0.00 | 0.00 | 0.00 | 81 | 1018.2 |
| 20260506104726 | 32 | 181 | 0.9 | 1.7 | 0.00 | 0.00 | 0.00 | 79 | 1018.3 |
| 20260506104224 | 32 | 144 | 0.9 | 2.6 | 0.00 | 0.00 | 0.00 | 78 | 1018.3 |
| 20260506103721 | 32 | 142 | 0.0 | 1.7 | 0.00 | 0.00 | 0.00 | 78 | 1018.2 |
| 20260506103218 | 33 | 124 | 0.0 | 1.7 | 0.00 | 0.00 | 0.00 | 77 | 1018.4 |
| 20260506102716 | 33 | 89 | 0.0 | 1.7 | 0.00 | 0.00 | 0.00 | 76 | 1018.2 |
| 20260506102213 | 33 | 245 | 0.9 | 1.7 | 0.00 | 0.00 | 0.00 | 76 | 1018.1 |
| 20260506101710 | 33 | 215 | 0.9 | 1.7 | 0.00 | 0.00 | 0.00 | 75 | 1018.1 |
| 20260506101206 | 34 | 297 | 1.7 | 1.7 | 0.00 | 0.00 | 0.00 | 75 | 1017.9 |
| 20260506100705 | 34 | 284 | 0.9 | 1.7 | 0.00 | 0.00 | 0.00 | 75 | 1018.0 |
| 20260506100202 | 34 | 0 | 0.0 | 0.9 | 0.00 | 0.00 | 0.00 | 77 | 1017.9 |
| 20260506095701 | 33 | 304 | 0.0 | 0.9 | 0.00 | 0.00 | 0.00 | 76 | 1017.9 |
| 20260506095157 | 33 | 321 | 0.0 | 1.7 | 0.00 | 0.00 | 0.00 | 77 | 1018.0 |
| 20260506094654 | 33 | 326 | 0.0 | 1.7 | 0.00 | 0.00 | 0.00 | 77 | 1017.8 |
| 20260506094152 | 33 | 329 | 0.0 | 1.7 | 0.00 | 0.00 | 0.00 | 78 | 1017.9 |
| 20260506093651 | 32 | 312 | 0.9 | 0.9 | 0.00 | 0.00 | 0.00 | 78 | 1017.8 |
| 20260506093147 | 32 | 14 | 0.9 | 0.9 | 0.00 | 0.00 | 0.00 | 78 | 1017.9 |
| 20260506092645 | 31 | 243 | 0.0 | 0.0 | 0.00 | 0.00 | 0.00 | 77 | 1018.0 |
| 20260506092142 | 31 | 224 | 0.0 | 0.0 | 0.00 | 0.00 | 0.00 | 77 | 1017.8 |
| 20260506091640 | 31 | 132 | 0.0 | 1.7 | 0.00 | 0.00 | 0.00 | 76 | 1017.9 |
| 20260506091137 | 31 | 138 | 1.7 | 1.7 | 0.00 | 0.00 | 0.00 | 76 | 1017.7 |
| 20260506090635 | 32 | 308 | 0.0 | 0.0 | 0.00 | 0.00 | 0.00 | 76 | 1017.6 |
| 20260506090131 | 32 | 310 | 0.0 | 0.9 | 0.00 | 0.00 | 0.00 | 76 | 1017.4 |
| 20260506085628 | 33 | 298 | 0.9 | 1.7 | 0.00 | 0.00 | 0.00 | 74 | 1017.5 |
| 20260506085124 | 33 | 299 | 1.7 | 2.6 | 0.00 | 0.00 | 0.00 | 74 | 1017.6 |
| 20260506084621 | 33 | 304 | 1.7 | 1.7 | 0.00 | 0.00 | 0.00 | 74 | 1017.4 |
| 20260506084118 | 33 | 303 | 0.9 | 1.7 | 0.00 | 0.00 | 0.00 | 75 | 1017.3 |
| 20260506083615 | 33 | 304 | 1.7 | 1.7 | 0.00 | 0.00 | 0.00 | 74 | 1017.2 |
| 20260506083113 | 33 | 335 | 1.7 | 1.7 | 0.00 | 0.00 | 0.00 | 73 | 1017.2 |
| 20260506082609 | 33 | 336 | 1.7 | 2.6 | 0.00 | 0.00 | 0.00 | 74 | 1017.6 |
| 20260506082105 | 33 | 347 | 0.9 | 1.7 | 0.00 | 0.00 | 0.00 | 74 | 1017.3 |
| 20260506081603 | 33 | 316 | 1.7 | 2.6 | 0.00 | 0.00 | 0.00 | 71 | 1017.7 |
| 20260506081100 | 34 | 317 | 1.7 | 2.6 | 0.00 | 0.00 | 0.00 | 70 | 1017.8 |
| 20260506080558 | 34 | 286 | 1.7 | 1.7 | 0.00 | 0.00 | 0.00 | 71 | 1017.7 |
| 20260506073038 | 33 | 281 | 1.7 | 1.7 | 0.00 | 0.00 | 0.00 | 72 | 1017.4 |
| 20260506072535 | 33 | 303 | 1.7 | 2.6 | 0.00 | 0.00 | 0.00 | 71 | 1017.1 |
| 20260506072033 | 33 | 267 | 1.7 | 1.7 | 0.00 | 0.00 | 0.00 | 72 | 1017.1 |
| 20260506071531 | 34 | 290 | 1.7 | 1.7 | 0.00 | 0.00 | 0.00 | 71 | 1017.2 |
| 20260506071028 | 34 | 295 | 0.9 | 2.6 | 0.00 | 0.00 | 0.00 | 70 | 1016.9 |
| 20260506070525 | 34 | 289 | 1.7 | 2.6 | 0.00 | 0.00 | 0.00 | 72 | 1017.2 |
| 20260506062502 | 32 | 248 | 0.0 | 0.9 | 0.00 | 0.00 | 0.00 | 76 | 1017.3 |
| 20260506061959 | 32 | 72 | 0.0 | 0.9 | 0.00 | 0.00 | 0.00 | 73 | 1017.4 |
| 20260506061455 | 32 | 142 | 1.7 | 1.7 | 0.00 | 0.00 | 0.00 | 74 | 1017.2 |
| 20260506060953 | 32 | 124 | 0.0 | 0.9 | 0.00 | 0.00 | 0.00 | 74 | 1017.1 |
| 20260506060451 | 33 | 246 | 0.0 | 0.9 | 0.00 | 0.00 | 0.00 | 72 | 1017.1 |
| 20260506050920 | 33 | 117 | 0.9 | 0.9 | 0.00 | 0.00 | 0.00 | 72 | 1016.6 |
| 20260506050417 | 34 | 89 | 0.0 | 0.9 | 0.00 | 0.00 | 0.00 | 73 | 1016.5 |
| 20260506044908 | 33 | 112 | 0.0 | 0.9 | 0.00 | 0.00 | 0.00 | 69 | 1016.5 |
| 20260506044406 | 34 | 126 | 0.0 | 0.9 | 0.00 | 0.00 | 0.00 | 68 | 1016.6 |
| 20260506043903 | 35 | 127 | 0.9 | 0.9 | 0.00 | 0.00 | 0.00 | 68 | 1016.6 |
| 20260506043400 | 35 | 195 | 0.9 | 1.7 | 0.00 | 0.00 | 0.00 | 67 | 1016.6 |
| 20260506042858 | 36 | 148 | 1.7 | 1.7 | 0.00 | 0.00 | 0.00 | 67 | 1016.5 |
| 20260506042357 | 37 | 119 | 0.0 | 0.9 | 0.00 | 0.00 | 0.00 | 62 | 1016.7 |
| 20260506041855 | 38 | 56 | 0.0 | 1.7 | 0.00 | 0.00 | 0.00 | 62 | 1016.7 |
| 20260506041354 | 38 | 44 | 0.0 | 0.0 | 0.00 | 0.00 | 0.00 | 62 | 1016.6 |
| 20260506040849 | 38 | 32 | 0.0 | 0.9 | 0.00 | 0.00 | 0.00 | 68 | 1016.6 |
| 20260506040346 | 38 | 315 | 0.0 | 0.0 | 0.00 | 0.00 | 0.00 | 66 | 1016.6 |
| 20260506035842 | 38 | 22 | 0.0 | 0.9 | 0.00 | 0.00 | 0.00 | 69 | 1016.4 |
| 20260506035340 | 39 | 32 | 0.0 | 0.0 | 0.00 | 0.00 | 0.00 | 70 | 1016.5 |
| 20260506034837 | 39 | 44 | 0.0 | 0.0 | 0.00 | 0.00 | 0.00 | 65 | 1016.5 |
| 20260506034334 | 38 | 44 | 0.0 | 0.0 | 0.00 | 0.00 | 0.00 | 61 | 1016.6 |
| 20260506033831 | 39 | 44 | 0.0 | 0.0 | 0.00 | 0.00 | 0.00 | 62 | 1016.7 |